createdAt,value
2016-07-17T00:00:36.968Z,95.21
2016-07-17T00:01:36.242Z,95.21
2016-07-17T00:02:36.243Z,95.5
2016-07-17T00:03:36.224Z,95.4
2016-07-17T00:04:36.925Z,95.21
2016-07-17T00:05:36.910Z,95.31
2016-07-17T00:06:36.903Z,95.21
2016-07-17T00:07:36.894Z,95.4
2016-07-17T00:08:36.889Z,94.93
2016-07-17T00:09:36.872Z,95.21
2016-07-17T00:10:36.157Z,94.93
2016-07-17T00:11:36.150Z,94.78
2016-07-17T00:12:36.845Z,95.03
2016-07-17T00:13:36.127Z,94.64
2016-07-17T00:14:36.125Z,94.88
2016-07-17T00:15:36.112Z,94.68
2016-07-17T00:16:36.103Z,94.49
2016-07-17T00:17:36.091Z,94.59
2016-07-17T00:18:36.085Z,94.49
2016-07-17T00:19:36.074Z,94.21
2016-07-17T00:20:36.771Z,94.21
2016-07-17T00:21:36.056Z,94.4
2016-07-17T00:22:36.753Z,94.11
2016-07-17T00:23:36.032Z,93.91
2016-07-17T00:24:36.025Z,94.3
2016-07-17T00:25:36.014Z,94.3
2016-07-17T00:26:36.008Z,94.11
2016-07-17T00:27:36.705Z,93.34
2016-07-17T00:28:35.989Z,94.11
2016-07-17T00:29:35.983Z,94.01
2016-07-17T00:30:35.972Z,93.63
2016-07-17T00:31:36.663Z,93.91
2016-07-17T00:32:36.150Z,93.73
2016-07-17T00:33:35.941Z,93.96
2016-07-17T00:34:36.684Z,93.19
2016-07-17T00:35:36.630Z,93.34
2016-07-17T00:36:36.620Z,93.19
2016-07-17T00:37:35.904Z,93.29
2016-07-17T00:38:36.603Z,93.1
2016-07-17T00:39:35.885Z,93.34
2016-07-17T00:40:36.589Z,93.19
2016-07-17T00:41:36.576Z,93.58
2016-07-17T00:42:36.564Z,92.71
2016-07-17T00:43:36.560Z,92.81
2016-07-17T00:44:35.835Z,93
2016-07-17T00:45:35.829Z,92.71
2016-07-17T00:46:36.530Z,92.91
2016-07-17T00:47:35.808Z,93.19
2016-07-17T00:48:35.804Z,92.71
2016-07-17T00:49:36.494Z,92.91
2016-07-17T00:50:36.489Z,92.81
2016-07-17T00:51:35.772Z,92.91
2016-07-17T00:52:35.767Z,92.81
2016-07-17T00:53:35.752Z,92.71
2016-07-17T00:54:35.750Z,92.71
2016-07-17T00:55:35.734Z,92.61
2016-07-17T00:56:35.726Z,92.91
2016-07-17T00:57:36.423Z,92.52
2016-07-17T00:58:36.417Z,92.91
2016-07-17T00:59:35.696Z,92.04
2016-07-17T01:00:35.686Z,92.04
2016-07-17T01:01:36.388Z,92.04
2016-07-17T01:02:36.382Z,91.94
2016-07-17T01:03:36.369Z,92.13
2016-07-17T01:04:35.654Z,92.23
2016-07-17T01:05:35.651Z,92.13
2016-07-17T01:06:35.634Z,92.04
2016-07-17T01:07:35.630Z,92.13
2016-07-17T01:08:35.616Z,92.13
2016-07-17T01:09:36.313Z,92.13
2016-07-17T01:10:35.605Z,92.04
2016-07-17T01:11:35.590Z,92.04
2016-07-17T01:12:35.582Z,92.23
2016-07-17T01:13:36.281Z,92.33
2016-07-17T01:14:35.560Z,91.94
2016-07-17T01:15:35.554Z,92.43
2016-07-17T01:16:35.543Z,92.43
2016-07-17T01:17:35.536Z,92.33
2016-07-17T01:18:35.525Z,91.94
2016-07-17T01:19:35.514Z,92.13
2016-07-17T01:20:35.509Z,92.04
2016-07-17T01:21:35.500Z,92.04
2016-07-17T01:22:35.502Z,92.33
2016-07-17T01:23:36.187Z,92.52
2016-07-17T01:24:36.178Z,92.23
2016-07-17T01:25:36.170Z,92.13
2016-07-17T01:26:35.450Z,92.23
2016-07-17T01:27:36.150Z,92.33
2016-07-17T01:28:36.143Z,92.61
2016-07-17T01:29:36.131Z,92.33
2016-07-17T01:30:35.414Z,92.04
2016-07-17T01:31:35.414Z,92.43
2016-07-17T01:32:35.396Z,92.23
2016-07-17T01:33:35.392Z,92.61
2016-07-17T01:34:35.379Z,92.81
2016-07-17T01:35:35.369Z,93.1
2016-07-17T01:36:36.071Z,93.1
2016-07-17T01:37:35.349Z,92.71
2016-07-17T01:38:35.343Z,92.61
2016-07-17T01:39:35.335Z,92.81
2016-07-17T01:40:36.030Z,92.61
2016-07-17T01:41:35.319Z,92.61
2016-07-17T01:42:35.305Z,93
2016-07-17T01:43:35.298Z,92.81
2016-07-17T01:44:35.289Z,92.71
2016-07-17T01:45:35.278Z,92.61
2016-07-17T01:46:35.270Z,92.81
2016-07-17T01:47:35.257Z,92.81
2016-07-17T01:48:35.962Z,93.1
2016-07-17T01:49:35.951Z,93.1
2016-07-17T01:50:35.234Z,93
2016-07-17T01:51:35.929Z,92.91
2016-07-17T01:52:35.216Z,92.91
2016-07-17T01:53:35.204Z,92.71
2016-07-17T01:54:35.905Z,93
2016-07-17T01:55:35.190Z,92.91
2016-07-17T01:56:35.180Z,92.61
2016-07-17T01:57:35.169Z,92.91
2016-07-17T01:58:35.868Z,92.96
2016-07-17T01:59:35.153Z,92.71
2016-07-17T02:00:35.143Z,92.61
2016-07-17T02:01:35.840Z,92.52
2016-07-17T02:02:35.122Z,92.71
2016-07-17T02:03:35.114Z,92.81
2016-07-17T02:04:35.812Z,92.71
2016-07-17T02:05:35.800Z,92.81
2016-07-17T02:06:35.795Z,92.61
2016-07-17T02:07:35.090Z,93.19
2016-07-17T02:08:35.066Z,93
2016-07-17T02:09:35.772Z,93.1
2016-07-17T02:10:35.757Z,93.38
2016-07-17T02:11:35.041Z,92.91
2016-07-17T02:12:35.737Z,92.91
2016-07-17T02:13:35.020Z,92.52
2016-07-17T02:14:35.012Z,92.71
2016-07-17T02:15:35.003Z,92.81
2016-07-17T02:16:35.715Z,92.81
2016-07-17T02:17:34.985Z,93
2016-07-17T02:18:34.976Z,92.81
2016-07-17T02:19:34.967Z,92.91
2016-07-17T02:20:34.953Z,92.91
2016-07-17T02:21:34.946Z,92.91
2016-07-17T02:22:34.937Z,92.61
2016-07-17T02:23:34.927Z,92.91
2016-07-17T02:24:34.937Z,93
2016-07-17T02:25:34.917Z,92.61
2016-07-17T02:26:34.903Z,92.76
2016-07-17T02:27:34.893Z,92.71
2016-07-17T02:28:34.881Z,92.81
2016-07-17T02:29:35.586Z,92.81
2016-07-17T02:30:34.868Z,92.52
2016-07-17T02:31:34.868Z,92.71
2016-07-17T02:32:35.756Z,92.81
2016-07-17T02:33:35.546Z,92.91
2016-07-17T02:34:34.829Z,92.91
2016-07-17T02:35:34.819Z,92.43
2016-07-17T02:36:35.516Z,91.94
2016-07-17T02:37:35.510Z,92.13
2016-07-17T02:38:34.797Z,92.13
2016-07-17T02:39:34.783Z,91.94
2016-07-17T02:40:34.778Z,92.23
2016-07-17T02:41:34.764Z,92.33
2016-07-17T02:42:34.755Z,92.52
2016-07-17T02:43:34.750Z,92.52
2016-07-17T02:44:34.737Z,92.04
2016-07-17T02:45:35.436Z,92.52
2016-07-17T02:46:35.424Z,92.23
2016-07-17T02:47:34.726Z,92.52
2016-07-17T02:48:35.418Z,92.52
2016-07-17T02:49:34.695Z,91.94
2016-07-17T02:50:35.391Z,92.04
2016-07-17T02:51:34.673Z,91.94
2016-07-17T02:52:34.664Z,91.99
2016-07-17T02:53:34.655Z,92.08
2016-07-17T02:54:34.647Z,92.04
2016-07-17T02:55:34.637Z,91.94
2016-07-17T02:56:34.626Z,92.08
2016-07-17T02:57:34.624Z,91.94
2016-07-17T02:58:34.613Z,92.61
2016-07-17T02:59:34.601Z,91.94
2016-07-17T03:00:34.594Z,92.04
2016-07-17T03:01:34.579Z,92.04
2016-07-17T03:02:34.570Z,92.57
2016-07-17T03:03:34.563Z,92.43
2016-07-17T03:04:35.259Z,92.33
2016-07-17T03:05:34.555Z,92.52
2016-07-17T03:06:34.536Z,92.61
2016-07-17T03:07:34.531Z,92.23
2016-07-17T03:08:34.521Z,92.52
2016-07-17T03:09:35.215Z,92.13
2016-07-17T03:10:34.498Z,92.52
2016-07-17T03:11:34.488Z,92.13
2016-07-17T03:12:34.477Z,92.04
2016-07-17T03:13:35.179Z,92.04
2016-07-17T03:14:34.461Z,92.52
2016-07-17T03:15:35.160Z,92.52
2016-07-17T03:16:35.152Z,92.52
2016-07-17T03:17:34.441Z,92.33
2016-07-17T03:18:34.424Z,92.04
2016-07-17T03:19:34.416Z,92.13
2016-07-17T03:20:35.114Z,91.94
2016-07-17T03:21:34.397Z,91.94
2016-07-17T03:22:35.091Z,91.94
2016-07-17T03:23:34.376Z,92.52
2016-07-17T03:24:34.366Z,91.94
2016-07-17T03:25:35.067Z,92.52
2016-07-17T03:26:34.354Z,91.94
2016-07-17T03:27:35.050Z,92.43
2016-07-17T03:28:34.331Z,91.94
2016-07-17T03:29:34.323Z,91.94
2016-07-17T03:30:34.311Z,92.13
2016-07-17T03:31:34.307Z,92.43
2016-07-17T03:32:35.003Z,92.52
2016-07-17T03:33:34.284Z,91.94
2016-07-17T03:34:34.984Z,92.33
2016-07-17T03:35:34.264Z,92.13
2016-07-17T03:36:34.258Z,92.13
2016-07-17T03:37:34.256Z,92.04
2016-07-17T03:38:34.241Z,92.04
2016-07-17T03:39:34.937Z,92.33
2016-07-17T03:40:34.219Z,92.13
2016-07-17T03:41:34.212Z,92.43
2016-07-17T03:42:34.213Z,92.23
2016-07-17T03:43:34.193Z,92.43
2016-07-17T03:44:34.185Z,92.43
2016-07-17T03:45:34.175Z,91.94
2016-07-17T03:46:34.165Z,91.94
2016-07-17T03:47:34.861Z,91.94
2016-07-17T03:48:34.153Z,92.13
2016-07-17T03:49:34.137Z,92.04
2016-07-17T03:50:34.132Z,92.04
2016-07-17T03:51:34.826Z,92.04
2016-07-17T03:52:34.110Z,92.04
2016-07-17T03:53:34.807Z,92.13
2016-07-17T03:54:34.097Z,91.94
2016-07-17T03:55:34.080Z,92.13
2016-07-17T03:56:34.073Z,92.13
2016-07-17T03:57:34.067Z,92.04
2016-07-17T03:58:34.057Z,91.94
2016-07-17T03:59:34.044Z,91.94
2016-07-17T04:00:34.041Z,91.85
2016-07-17T04:01:34.026Z,92.71
2016-07-17T04:02:34.016Z,91.85
2016-07-17T04:03:34.009Z,92.33
2016-07-17T04:04:33.998Z,92.13
2016-07-17T04:05:34.696Z,92.13
2016-07-17T04:06:34.686Z,92.04
2016-07-17T04:07:34.677Z,92.33
2016-07-17T04:08:33.962Z,92.13
2016-07-17T04:09:33.953Z,91.94
2016-07-17T04:10:34.651Z,92.23
2016-07-17T04:11:34.640Z,91.94
2016-07-17T04:12:34.633Z,91.94
2016-07-17T04:13:34.621Z,91.94
2016-07-17T04:14:33.907Z,91.94
2016-07-17T04:15:34.602Z,92.04
2016-07-17T04:16:34.596Z,91.94
2016-07-17T04:17:34.587Z,92.91
2016-07-17T04:18:33.868Z,92.91
2016-07-17T04:19:33.863Z,92.13
2016-07-17T04:20:33.854Z,92.43
2016-07-17T04:21:33.841Z,91.94
2016-07-17T04:22:34.545Z,92.52
2016-07-17T04:23:33.828Z,91.94
2016-07-17T04:24:33.815Z,92.04
2016-07-17T04:25:34.512Z,91.94
2016-07-17T04:26:33.798Z,92.33
2016-07-17T04:27:34.494Z,92.33
2016-07-17T04:28:33.775Z,92.23
2016-07-17T04:29:33.770Z,92.13
2016-07-17T04:30:33.760Z,91.94
2016-07-17T04:31:33.749Z,91.94
2016-07-17T04:32:34.649Z,91.85
2016-07-17T04:33:33.731Z,92.91
2016-07-17T04:34:33.725Z,91.94
2016-07-17T04:35:33.717Z,92.13
2016-07-17T04:36:33.705Z,92.43
2016-07-17T04:37:34.400Z,92.13
2016-07-17T04:38:33.686Z,92.04
2016-07-17T04:39:33.675Z,92.13
2016-07-17T04:40:33.670Z,92.23
2016-07-17T04:41:33.660Z,92.18
2016-07-17T04:42:33.648Z,92.33
2016-07-17T04:43:34.348Z,92.23
2016-07-17T04:44:33.630Z,92.38
2016-07-17T04:45:34.336Z,92.57
2016-07-17T04:46:33.609Z,92.23
2016-07-17T04:47:34.311Z,92.28
2016-07-17T04:48:33.593Z,92.23
2016-07-17T04:49:33.584Z,91.99
2016-07-17T04:50:33.577Z,92.28
2016-07-17T04:51:33.565Z,92.08
2016-07-17T04:52:34.268Z,92.08
2016-07-17T04:53:33.549Z,92.47
2016-07-17T04:54:33.540Z,91.99
2016-07-17T04:55:33.529Z,92.18
2016-07-17T04:56:34.231Z,92.08
2016-07-17T04:57:33.510Z,91.99
2016-07-17T04:58:33.503Z,91.89
2016-07-17T04:59:33.493Z,91.8
2016-07-17T05:00:33.483Z,91.41
2016-07-17T05:01:34.184Z,91.31
2016-07-17T05:02:33.466Z,91.6
2016-07-17T05:03:33.460Z,91.6
2016-07-17T05:04:33.448Z,91.51
2016-07-17T05:05:34.144Z,91.6
2016-07-17T05:06:34.137Z,91.6
2016-07-17T05:07:34.128Z,91.7
2016-07-17T05:08:34.117Z,91.7
2016-07-17T05:09:33.403Z,91.22
2016-07-17T05:10:34.103Z,91.8
2016-07-17T05:11:34.091Z,91.51
2016-07-17T05:12:33.378Z,91.41
2016-07-17T05:13:33.370Z,91.7
2016-07-17T05:14:33.357Z,90.93
2016-07-17T05:15:34.059Z,91.41
2016-07-17T05:16:33.339Z,91.6
2016-07-17T05:17:33.332Z,91.03
2016-07-17T05:18:34.030Z,91.31
2016-07-17T05:19:33.312Z,91.03
2016-07-17T05:20:34.015Z,91.6
2016-07-17T05:21:33.298Z,91.7
2016-07-17T05:22:33.286Z,91.6
2016-07-17T05:23:33.279Z,91.31
2016-07-17T05:24:33.973Z,91.22
2016-07-17T05:25:33.263Z,91.31
2016-07-17T05:26:33.252Z,91.31
2016-07-17T05:27:33.954Z,91.31
2016-07-17T05:28:33.942Z,91.31
2016-07-17T05:29:33.226Z,91.46
2016-07-17T05:30:33.218Z,91.03
2016-07-17T05:31:33.207Z,90.88
2016-07-17T05:32:33.202Z,91.17
2016-07-17T05:33:33.898Z,90.78
2016-07-17T05:34:33.184Z,90.97
2016-07-17T05:35:33.174Z,90.78
2016-07-17T05:36:33.873Z,90.3
2016-07-17T05:37:33.159Z,90.88
2016-07-17T05:38:33.150Z,90.69
2016-07-17T05:39:33.141Z,90.69
2016-07-17T05:40:33.838Z,90.88
2016-07-17T05:41:33.121Z,90.5
2016-07-17T05:42:33.115Z,90.78
2016-07-17T05:43:33.105Z,90.5
2016-07-17T05:44:33.802Z,90.2
2016-07-17T05:45:33.087Z,90.11
2016-07-17T05:46:33.079Z,90.59
2016-07-17T05:47:33.073Z,90.01
2016-07-17T05:48:33.768Z,89.77
2016-07-17T05:49:33.764Z,89.82
2016-07-17T05:50:33.048Z,90.11
2016-07-17T05:51:33.040Z,89.48
2016-07-17T05:52:33.027Z,89.92
2016-07-17T05:53:33.024Z,89.92
2016-07-17T05:54:33.012Z,89.82
2016-07-17T05:55:33.002Z,89.09
2016-07-17T05:56:33.702Z,89.34
2016-07-17T05:57:33.698Z,89.19
2016-07-17T05:58:33.684Z,89.29
2016-07-17T05:59:33.679Z,89.48
2016-07-17T06:00:33.669Z,88.81
2016-07-17T06:01:33.660Z,89.09
2016-07-17T06:02:32.944Z,88.9
2016-07-17T06:03:32.939Z,89.39
2016-07-17T06:04:32.929Z,89.09
2016-07-17T06:05:32.924Z,88.61
2016-07-17T06:06:32.911Z,88.51
2016-07-17T06:07:32.901Z,88.81
2016-07-17T06:08:32.898Z,88.9
2016-07-17T06:09:32.888Z,88.04
2016-07-17T06:10:33.587Z,88.32
2016-07-17T06:11:33.578Z,88.61
2016-07-17T06:12:32.864Z,88.71
2016-07-17T06:13:33.565Z,88.42
2016-07-17T06:14:33.551Z,88.9
2016-07-17T06:15:32.841Z,88.13
2016-07-17T06:16:32.827Z,88.42
2016-07-17T06:17:33.532Z,88.42
2016-07-17T06:18:32.814Z,88.23
2016-07-17T06:19:32.805Z,88.42
2016-07-17T06:20:33.503Z,88.42
2016-07-17T06:21:32.795Z,88.23
2016-07-17T06:22:32.784Z,88.42
2016-07-17T06:23:33.482Z,88.42
2016-07-17T06:24:32.769Z,88.13
2016-07-17T06:25:32.777Z,88.71
2016-07-17T06:26:33.458Z,88.61
2016-07-17T06:27:32.748Z,88.9
2016-07-17T06:28:32.733Z,89.09
2016-07-17T06:29:32.730Z,88.81
2016-07-17T06:30:33.424Z,88.71
2016-07-17T06:31:32.710Z,88.71
2016-07-17T06:32:32.905Z,88.67
2016-07-17T06:33:32.703Z,88.71
2016-07-17T06:34:32.683Z,88.61
2016-07-17T06:35:32.683Z,88.81
2016-07-17T06:36:33.375Z,88.71
2016-07-17T06:37:33.374Z,88.9
2016-07-17T06:38:32.654Z,88.9
2016-07-17T06:39:33.356Z,89.09
2016-07-17T06:40:33.345Z,89
2016-07-17T06:41:33.345Z,88.76
2016-07-17T06:42:32.620Z,88.9
2016-07-17T06:43:33.340Z,88.81
2016-07-17T06:44:32.606Z,88.95
2016-07-17T06:45:33.310Z,88.9
2016-07-17T06:46:32.589Z,89
2016-07-17T06:47:33.289Z,88.61
2016-07-17T06:48:32.572Z,88.81
2016-07-17T06:49:32.562Z,88.81
2016-07-17T06:50:33.271Z,88.61
2016-07-17T06:51:33.278Z,88.81
2016-07-17T06:52:33.246Z,89.05
2016-07-17T06:53:32.539Z,89
2016-07-17T06:54:33.232Z,88.81
2016-07-17T06:55:33.238Z,89.09
2016-07-17T06:56:33.213Z,88.81
2016-07-17T06:57:32.502Z,88.9
2016-07-17T06:58:32.488Z,88.9
2016-07-17T06:59:32.503Z,88.42
2016-07-17T07:00:32.483Z,88.81
2016-07-17T07:01:32.465Z,88.9
2016-07-17T07:02:32.454Z,89
2016-07-17T07:03:32.447Z,89
2016-07-17T07:04:33.143Z,88.81
2016-07-17T07:05:33.137Z,89.39
2016-07-17T07:06:32.421Z,89.29
2016-07-17T07:07:32.414Z,88.81
2016-07-17T07:08:32.407Z,89
2016-07-17T07:09:33.102Z,88.95
2016-07-17T07:10:32.388Z,89
2016-07-17T07:11:32.381Z,88.9
2016-07-17T07:12:32.379Z,89.29
2016-07-17T07:13:33.074Z,88.9
2016-07-17T07:14:32.357Z,89.09
2016-07-17T07:15:32.347Z,88.9
2016-07-17T07:16:33.050Z,89
2016-07-17T07:17:32.331Z,89.09
2016-07-17T07:18:33.030Z,88.81
2016-07-17T07:19:33.020Z,88.71
2016-07-17T07:20:32.306Z,89
2016-07-17T07:21:32.297Z,88.71
2016-07-17T07:22:33.001Z,88.81
2016-07-17T07:23:32.280Z,88.71
2016-07-17T07:24:32.276Z,88.9
2016-07-17T07:25:32.973Z,88.71
2016-07-17T07:26:32.263Z,88.81
2016-07-17T07:27:32.957Z,89.09
2016-07-17T07:28:32.243Z,89.29
2016-07-17T07:29:32.235Z,89.39
2016-07-17T07:30:32.932Z,89.09
2016-07-17T07:31:32.218Z,89.09
2016-07-17T07:32:32.211Z,88.71
2016-07-17T07:33:32.201Z,89.09
2016-07-17T07:34:32.898Z,88.42
2016-07-17T07:35:32.891Z,89
2016-07-17T07:36:32.175Z,88.42
2016-07-17T07:37:32.170Z,88.81
2016-07-17T07:38:32.162Z,88.81
2016-07-17T07:39:32.858Z,88.81
2016-07-17T07:40:32.145Z,88.9
2016-07-17T07:41:32.135Z,88.51
2016-07-17T07:42:32.126Z,88.9
2016-07-17T07:43:32.826Z,88.9
2016-07-17T07:44:32.816Z,88.61
2016-07-17T07:45:32.101Z,89.29
2016-07-17T07:46:32.220Z,88.9
2016-07-17T07:47:32.807Z,89.39
2016-07-17T07:48:32.789Z,89.39
2016-07-17T07:49:32.069Z,88.81
2016-07-17T07:50:32.069Z,89.39
2016-07-17T07:51:32.055Z,88.9
2016-07-17T07:52:32.055Z,89.19
2016-07-17T07:53:32.743Z,89.39
2016-07-17T07:54:32.740Z,89.09
2016-07-17T07:55:32.021Z,89
2016-07-17T07:56:32.010Z,88.9
2016-07-17T07:57:32.712Z,88.9
2016-07-17T07:58:31.999Z,88.9
2016-07-17T07:59:32.697Z,89.09
2016-07-17T08:00:32.703Z,89.39
2016-07-17T08:01:31.975Z,89.86
2016-07-17T08:02:32.670Z,89.09
2016-07-17T08:03:32.673Z,89
2016-07-17T08:04:31.954Z,89.04
2016-07-17T08:05:32.647Z,88.56
2016-07-17T08:06:31.932Z,88.27
2016-07-17T08:07:31.922Z,87.5
2016-07-17T08:08:31.918Z,87.12
2016-07-17T08:09:32.626Z,87.12
2016-07-17T08:10:31.906Z,87.21
2016-07-17T08:11:31.896Z,87.7
2016-07-17T08:12:31.883Z,87.4
2016-07-17T08:13:32.589Z,88.37
2016-07-17T08:14:32.596Z,88.08
2016-07-17T08:15:32.574Z,87.6
2016-07-17T08:16:31.854Z,87.6
2016-07-17T08:17:31.848Z,87.4
2016-07-17T08:18:32.548Z,87.79
2016-07-17T08:19:31.833Z,88.17
2016-07-17T08:20:31.822Z,88.6
2016-07-17T08:21:31.818Z,88.79
2016-07-17T08:22:31.809Z,86.77
2016-07-17T08:23:31.799Z,85.94
2016-07-17T08:24:31.794Z,85.94
2016-07-17T08:25:31.783Z,85.56
2016-07-17T08:26:31.778Z,85.27
2016-07-17T08:27:31.770Z,85.56
2016-07-17T08:28:32.474Z,85.27
2016-07-17T08:29:31.755Z,84.98
2016-07-17T08:30:31.749Z,85.46
2016-07-17T08:31:32.447Z,85.08
2016-07-17T08:32:31.936Z,85.66
2016-07-17T08:33:32.432Z,86.14
2016-07-17T08:34:31.719Z,85.61
2016-07-17T08:35:32.418Z,85.91
2016-07-17T08:36:31.702Z,86.19
2016-07-17T08:37:31.697Z,87.16
2016-07-17T08:38:31.693Z,88.51
2016-07-17T08:39:31.681Z,88.85
2016-07-17T08:40:31.675Z,89.72
2016-07-17T08:41:32.373Z,90.48
2016-07-17T08:42:32.377Z,90.48
2016-07-17T08:43:32.355Z,90.68
2016-07-17T08:44:32.348Z,91.16
2016-07-17T08:45:32.352Z,92.51
2016-07-17T08:46:31.630Z,91.45
2016-07-17T08:47:32.328Z,91.45
2016-07-17T08:48:32.322Z,91.26
2016-07-17T08:49:31.611Z,91.64
2016-07-17T08:50:31.605Z,91.36
2016-07-17T08:51:31.587Z,91.69
2016-07-17T08:52:31.584Z,91.4
2016-07-17T08:53:32.278Z,91.78
2016-07-17T08:54:32.275Z,92.75
2016-07-17T08:55:32.272Z,91.78
2016-07-17T08:56:32.268Z,91.4
2016-07-17T08:57:32.252Z,90.63
2016-07-17T08:58:31.538Z,91.02
2016-07-17T08:59:32.234Z,91.2
2016-07-17T09:00:31.521Z,91.11
2016-07-17T09:01:31.515Z,90.72
2016-07-17T09:02:31.507Z,90.72
2016-07-17T09:03:31.499Z,90.82
2016-07-17T09:04:32.200Z,91.2
2016-07-17T09:05:31.489Z,91.4
2016-07-17T09:06:32.186Z,89.86
2016-07-17T09:07:32.177Z,89.81
2016-07-17T09:08:31.462Z,89.23
2016-07-17T09:09:31.456Z,88.55
2016-07-17T09:10:31.449Z,87.2
2016-07-17T09:11:32.146Z,88.93
2016-07-17T09:12:32.141Z,87.24
2016-07-17T09:13:32.135Z,86.96
2016-07-17T09:14:32.127Z,85.94
2016-07-17T09:15:31.412Z,86.03
2016-07-17T09:16:32.111Z,85.84
2016-07-17T09:17:32.105Z,86.42
2016-07-17T09:18:31.402Z,85.21
2016-07-17T09:19:32.093Z,84.91
2016-07-17T09:20:32.092Z,84.43
2016-07-17T09:21:31.381Z,85.64
2016-07-17T09:22:31.371Z,86.52
2016-07-17T09:23:32.068Z,84.97
2016-07-17T09:24:31.361Z,84.2
2016-07-17T09:25:32.048Z,84
2016-07-17T09:26:31.338Z,84
2016-07-17T09:27:31.332Z,84
2016-07-17T09:28:31.326Z,84.63
2016-07-17T09:29:31.318Z,83.72
2016-07-17T09:30:31.312Z,83.14
2016-07-17T09:31:32.012Z,84.3
2016-07-17T09:32:31.302Z,84.39
2016-07-17T09:33:32.000Z,83.14
2016-07-17T09:34:31.999Z,82.36
2016-07-17T09:35:31.280Z,82.26
2016-07-17T09:36:31.284Z,82.75
2016-07-17T09:37:31.975Z,83.04
2016-07-17T09:38:31.963Z,83.23
2016-07-17T09:39:31.255Z,82.17
2016-07-17T09:40:31.957Z,81.49
2016-07-17T09:41:31.949Z,83.37
2016-07-17T09:42:31.233Z,81.68
2016-07-17T09:43:31.226Z,81.59
2016-07-17T09:44:31.223Z,81.49
2016-07-17T09:45:31.215Z,81.98
2016-07-17T09:46:31.916Z,82.75
2016-07-17T09:47:31.910Z,81.78
2016-07-17T09:48:31.197Z,81.2
2016-07-17T09:49:31.190Z,81.98
2016-07-17T09:50:31.893Z,81.2
2016-07-17T09:51:31.883Z,81.4
2016-07-17T09:52:31.877Z,81.78
2016-07-17T09:53:31.161Z,79.7
2016-07-17T09:54:31.153Z,80.08
2016-07-17T09:55:31.151Z,79.64
2016-07-17T09:56:31.143Z,79.02
2016-07-17T09:57:31.148Z,80.32
2016-07-17T09:58:31.127Z,78.19
2016-07-17T09:59:31.139Z,78.58
2016-07-17T10:00:31.118Z,79.25
2016-07-17T10:01:31.813Z,78.58
2016-07-17T10:02:31.817Z,77.13
2016-07-17T10:03:31.099Z,80.03
2016-07-17T10:04:31.089Z,80.32
2016-07-17T10:05:31.790Z,80.03
2016-07-17T10:06:31.079Z,78.48
2016-07-17T10:07:31.076Z,78.96
2016-07-17T10:08:31.065Z,79.6
2016-07-17T10:09:31.768Z,79.6
2016-07-17T10:10:31.057Z,80.66
2016-07-17T10:11:31.054Z,80.57
2016-07-17T10:12:31.750Z,81.59
2016-07-17T10:13:31.748Z,82.46
2016-07-17T10:14:31.738Z,82.84
2016-07-17T10:15:31.033Z,83.52
2016-07-17T10:16:31.721Z,84.78
2016-07-17T10:17:31.035Z,86.71
2016-07-17T10:18:31.718Z,85.64
2016-07-17T10:19:31.705Z,84.88
2016-07-17T10:20:31.696Z,84.82
2016-07-17T10:21:31.696Z,83.47
2016-07-17T10:22:31.683Z,84.14
2016-07-17T10:23:30.973Z,84.63
2016-07-17T10:24:31.665Z,82.79
2016-07-17T10:25:30.982Z,84.72
2016-07-17T10:26:30.946Z,83.18
2016-07-17T10:27:30.972Z,84.24
2016-07-17T10:28:30.936Z,81.87
2016-07-17T10:29:31.642Z,81.29
2016-07-17T10:30:30.923Z,82.35
2016-07-17T10:31:30.947Z,80.99
2016-07-17T10:32:31.818Z,80.51
2016-07-17T10:33:30.906Z,81.57
2016-07-17T10:34:30.902Z,81.38
2016-07-17T10:35:30.890Z,81.13
2016-07-17T10:36:30.890Z,79.1
2016-07-17T10:37:30.880Z,80.65
2016-07-17T10:38:30.874Z,80.36
2016-07-17T10:39:31.576Z,80.51
2016-07-17T10:40:30.873Z,79.54
2016-07-17T10:41:30.857Z,80.12
2016-07-17T10:42:30.852Z,81.63
2016-07-17T10:43:30.843Z,81.05
2016-07-17T10:44:30.837Z,82.07
2016-07-17T10:45:30.830Z,83.14
2016-07-17T10:46:31.545Z,84
2016-07-17T10:47:30.847Z,84.39
2016-07-17T10:48:30.811Z,85.8
2016-07-17T10:49:30.804Z,85.12
2016-07-17T10:50:30.799Z,85.46
2016-07-17T10:51:31.497Z,86.72
2016-07-17T10:52:30.782Z,87.78
2016-07-17T10:53:30.780Z,88.17
2016-07-17T10:54:30.771Z,88.75
2016-07-17T10:55:30.765Z,87.88
2016-07-17T10:56:30.758Z,86.76
2016-07-17T10:57:31.456Z,87.24
2016-07-17T10:58:31.460Z,87.34
2016-07-17T10:59:30.740Z,86.8
2016-07-17T11:00:31.439Z,86.22
2016-07-17T11:01:31.435Z,85.26
2016-07-17T11:02:30.717Z,85.16
2016-07-17T11:03:30.716Z,86.52
2016-07-17T11:04:31.492Z,85.94
2016-07-17T11:05:31.416Z,85.84
2016-07-17T11:06:30.697Z,85.06
2016-07-17T11:07:30.691Z,85.64
2016-07-17T11:08:31.399Z,85.06
2016-07-17T11:09:30.684Z,85.45
2016-07-17T11:10:31.371Z,84.88
2016-07-17T11:11:30.663Z,85.55
2016-07-17T11:12:30.655Z,86.32
2016-07-17T11:13:30.657Z,85.26
2016-07-17T11:14:31.356Z,86.38
2016-07-17T11:15:30.634Z,86.32
2016-07-17T11:16:30.627Z,86.42
2016-07-17T11:17:30.621Z,86.86
2016-07-17T11:18:30.611Z,86.9
2016-07-17T11:19:31.314Z,85.55
2016-07-17T11:20:30.622Z,84.97
2016-07-17T11:21:31.327Z,84.97
2016-07-17T11:22:31.309Z,85.78
2016-07-17T11:23:30.598Z,87.13
2016-07-17T11:24:31.291Z,84.33
2016-07-17T11:25:30.579Z,82.78
2016-07-17T11:26:30.563Z,82.43
2016-07-17T11:27:31.269Z,82.23
2016-07-17T11:28:30.611Z,79.57
2016-07-17T11:29:31.267Z,80.82
2016-07-17T11:30:30.538Z,80.82
2016-07-17T11:31:31.247Z,80.11
2016-07-17T11:32:30.533Z,80.69
2016-07-17T11:33:30.530Z,80.4
2016-07-17T11:34:31.226Z,80.88
2016-07-17T11:35:30.517Z,80.88
2016-07-17T11:36:30.508Z,81.75
2016-07-17T11:37:31.216Z,81.17
2016-07-17T11:38:30.499Z,82.33
2016-07-17T11:39:30.501Z,81.85
2016-07-17T11:40:30.496Z,81.65
2016-07-17T11:41:30.504Z,81.75
2016-07-17T11:42:30.473Z,80.11
2016-07-17T11:43:30.484Z,81.65
2016-07-17T11:44:30.463Z,80.26
2016-07-17T11:45:30.469Z,80.49
2016-07-17T11:46:31.162Z,80.11
2016-07-17T11:47:31.159Z,81.85
2016-07-17T11:48:31.149Z,80.2
2016-07-17T11:49:31.153Z,80.88
2016-07-17T11:50:31.141Z,80.88
2016-07-17T11:51:30.429Z,80.46
2016-07-17T11:52:30.424Z,80.36
2016-07-17T11:53:30.423Z,80.65
2016-07-17T11:54:30.416Z,80.07
2016-07-17T11:55:30.406Z,82
2016-07-17T11:56:30.405Z,81.32
2016-07-17T11:57:31.106Z,81.38
2016-07-17T11:58:30.391Z,80.46
2016-07-17T11:59:30.385Z,80.26
2016-07-17T12:00:30.381Z,79.14
2016-07-17T12:01:30.374Z,77.44
2016-07-17T12:02:30.383Z,77.28
2016-07-17T12:03:30.367Z,74.84
2016-07-17T12:04:31.075Z,73.42
2016-07-17T12:05:30.357Z,73.55
2016-07-17T12:06:30.352Z,71.9
2016-07-17T12:07:31.071Z,72.09
2016-07-17T12:08:31.055Z,71.32
2016-07-17T12:09:31.051Z,71.32
2016-07-17T12:10:31.055Z,71.19
2016-07-17T12:11:30.337Z,72.16
2016-07-17T12:12:31.048Z,72.99
2016-07-17T12:13:31.039Z,72.02
2016-07-17T12:14:30.330Z,73.77
2016-07-17T12:15:31.033Z,73.83
2016-07-17T12:16:30.322Z,74.35
2016-07-17T12:17:31.028Z,73.19
2016-07-17T12:18:30.319Z,73.64
2016-07-17T12:19:30.317Z,73.69
2016-07-17T12:20:31.015Z,74.18
2016-07-17T12:21:30.308Z,75.7
2016-07-17T12:22:30.304Z,76.37
2016-07-17T12:23:30.302Z,75.31
2016-07-17T12:24:30.298Z,75.79
2016-07-17T12:25:31.001Z,75.89
2016-07-17T12:26:30.994Z,75.85
2016-07-17T12:27:30.989Z,75.56
2016-07-17T12:28:30.991Z,76.14
2016-07-17T12:29:30.978Z,77.11
2016-07-17T12:30:30.268Z,76.29
2016-07-17T12:31:30.265Z,76.2
2016-07-17T12:32:30.465Z,77.17
2016-07-17T12:33:30.257Z,76.97
2016-07-17T12:34:30.251Z,77.03
2016-07-17T12:35:30.245Z,76.68
2016-07-17T12:36:30.242Z,76.87
2016-07-17T12:37:30.940Z,77.03
2016-07-17T12:38:30.227Z,77.75
2016-07-17T12:39:30.228Z,78.09
2016-07-17T12:40:30.929Z,77.22
2016-07-17T12:41:30.926Z,76.64
2016-07-17T12:42:30.912Z,77.22
2016-07-17T12:43:30.909Z,76.93
2016-07-17T12:44:30.198Z,76.64
2016-07-17T12:45:30.188Z,76.59
2016-07-17T12:46:30.891Z,77.45
2016-07-17T12:47:30.881Z,76.68
2016-07-17T12:48:30.178Z,76.91
2016-07-17T12:49:30.167Z,76.14
2016-07-17T12:50:30.156Z,76.53
2016-07-17T12:51:30.150Z,75.56
2016-07-17T12:52:30.147Z,76.14
2016-07-17T12:53:30.139Z,75.56
2016-07-17T12:54:30.131Z,75.17
2016-07-17T12:55:30.131Z,74.88
2016-07-17T12:56:30.119Z,74.69
2016-07-17T12:57:30.828Z,74.21